sensor_id;sensor_type;location;lat;lon;timestamp;pressure;altitude;pressure_sealevel;temperature;humidity
55217;BME280;41086;46.736;15.666;2023-07-29T00:01:33;98104.28;;;25.80;86.68
55217;BME280;41086;46.736;15.666;2023-07-29T00:04:00;98107.84;;;25.81;87.47
55217;BME280;41086;46.736;15.666;2023-07-29T00:06:27;98106.66;;;25.43;90.33
55217;BME280;41086;46.736;15.666;2023-07-29T00:08:53;98096.81;;;25.09;93.26
55217;BME280;41086;46.736;15.666;2023-07-29T00:11:20;98116.19;;;25.13;93.47
55217;BME280;41086;46.736;15.666;2023-07-29T00:13:47;98111.88;;;25.25;93.02
55217;BME280;41086;46.736;15.666;2023-07-29T00:16:16;98117.50;;;25.43;91.96
55217;BME280;41086;46.736;15.666;2023-07-29T00:18:44;98125.56;;;25.10;92.55
55217;BME280;41086;46.736;15.666;2023-07-29T00:21:11;98126.00;;;25.07;91.88
55217;BME280;41086;46.736;15.666;2023-07-29T00:23:37;98132.16;;;24.61;94.46
55217;BME280;41086;46.736;15.666;2023-07-29T00:26:04;98125.88;;;24.54;95.03
55217;BME280;41086;46.736;15.666;2023-07-29T00:28:31;98124.69;;;24.28;97.24
55217;BME280;41086;46.736;15.666;2023-07-29T00:30:58;98130.06;;;24.57;95.46
55217;BME280;41086;46.736;15.666;2023-07-29T00:33:26;98126.34;;;24.71;95.07
55217;BME280;41086;46.736;15.666;2023-07-29T00:35:52;98124.69;;;24.83;94.88
55217;BME280;41086;46.736;15.666;2023-07-29T00:38:19;98126.63;;;25.03;93.74
55217;BME280;41086;46.736;15.666;2023-07-29T00:40:46;98134.59;;;25.31;91.78
55217;BME280;41086;46.736;15.666;2023-07-29T00:43:14;98126.03;;;25.20;91.75
55217;BME280;41086;46.736;15.666;2023-07-29T00:45:41;98130.03;;;25.38;91.02
55217;BME280;41086;46.736;15.666;2023-07-29T00:48:09;98099.09;;;24.99;92.08
55217;BME280;41086;46.736;15.666;2023-07-29T00:50:37;98130.78;;;24.92;94.67
55217;BME280;41086;46.736;15.666;2023-07-29T00:53:04;98127.84;;;24.87;94.47
55217;BME280;41086;46.736;15.666;2023-07-29T00:55:31;98124.50;;;24.91;94.65
55217;BME280;41086;46.736;15.666;2023-07-29T00:57:58;98130.34;;;24.88;94.50
55217;BME280;41086;46.736;15.666;2023-07-29T01:00:25;98130.13;;;24.83;94.50
55217;BME280;41086;46.736;15.666;2023-07-29T01:02:52;98128.47;;;24.82;94.45
55217;BME280;41086;46.736;15.666;2023-07-29T01:05:22;98124.66;;;24.63;95.55
55217;BME280;41086;46.736;15.666;2023-07-29T01:09:14;98120.06;;;24.57;95.59
55217;BME280;41086;46.736;15.666;2023-07-29T01:11:38;98118.78;;;24.46;95.95
55217;BME280;41086;46.736;15.666;2023-07-29T01:14:21;98113.34;;;24.46;95.92
55217;BME280;41086;46.736;15.666;2023-07-29T01:16:53;98117.41;;;24.97;91.31
55217;BME280;41086;46.736;15.666;2023-07-29T01:19:40;98108.84;;;24.73;92.83
55217;BME280;41086;46.736;15.666;2023-07-29T01:22:10;98115.28;;;24.66;93.58
55217;BME280;41086;46.736;15.666;2023-07-29T01:24:39;98114.22;;;24.60;93.12
55217;BME280;41086;46.736;15.666;2023-07-29T01:27:06;98097.44;;;24.37;93.67
55217;BME280;41086;46.736;15.666;2023-07-29T01:29:33;98102.63;;;24.31;93.77
55217;BME280;41086;46.736;15.666;2023-07-29T01:32:01;98120.25;;;24.55;92.93
55217;BME280;41086;46.736;15.666;2023-07-29T01:34:37;98113.81;;;24.63;91.77
55217;BME280;41086;46.736;15.666;2023-07-29T01:37:09;98105.09;;;24.68;90.86
55217;BME280;41086;46.736;15.666;2023-07-29T01:39:39;98102.16;;;24.63;91.26
55217;BME280;41086;46.736;15.666;2023-07-29T01:42:07;98101.75;;;24.59;90.98
55217;BME280;41086;46.736;15.666;2023-07-29T01:44:34;98101.56;;;24.87;89.31
55217;BME280;41086;46.736;15.666;2023-07-29T01:47:01;98105.50;;;24.78;89.05
55217;BME280;41086;46.736;15.666;2023-07-29T01:49:28;98116.53;;;24.70;88.92
55217;BME280;41086;46.736;15.666;2023-07-29T01:51:54;98108.13;;;24.45;91.00
55217;BME280;41086;46.736;15.666;2023-07-29T01:54:21;98112.03;;;24.36;91.60
55217;BME280;41086;46.736;15.666;2023-07-29T01:56:48;98105.47;;;24.51;90.19
55217;BME280;41086;46.736;15.666;2023-07-29T01:59:15;98094.09;;;25.09;85.78
55217;BME280;41086;46.736;15.666;2023-07-29T02:01:43;98104.56;;;25.32;84.28
55217;BME280;41086;46.736;15.666;2023-07-29T02:04:09;98102.47;;;25.54;83.40
55217;BME280;41086;46.736;15.666;2023-07-29T02:06:36;98093.03;;;25.83;82.62
55217;BME280;41086;46.736;15.666;2023-07-29T02:09:04;98092.00;;;25.98;81.05
55217;BME280;41086;46.736;15.666;2023-07-29T02:11:31;98096.31;;;26.05;77.94
55217;BME280;41086;46.736;15.666;2023-07-29T02:13:58;98082.97;;;26.04;77.24
55217;BME280;41086;46.736;15.666;2023-07-29T02:16:24;98084.03;;;25.96;76.00
55217;BME280;41086;46.736;15.666;2023-07-29T02:18:51;98081.97;;;25.78;76.93
55217;BME280;41086;46.736;15.666;2023-07-29T02:21:21;98085.31;;;25.80;78.30
55217;BME280;41086;46.736;15.666;2023-07-29T02:23:48;98089.50;;;25.90;79.24
55217;BME280;41086;46.736;15.666;2023-07-29T02:26:16;98091.75;;;25.99;77.69
55217;BME280;41086;46.736;15.666;2023-07-29T02:28:44;98089.06;;;25.86;76.91
55217;BME280;41086;46.736;15.666;2023-07-29T02:31:21;98091.41;;;25.56;78.56
55217;BME280;41086;46.736;15.666;2023-07-29T02:33:48;98087.22;;;25.60;79.09
55217;BME280;41086;46.736;15.666;2023-07-29T02:36:17;98080.53;;;25.56;77.87
55217;BME280;41086;46.736;15.666;2023-07-29T02:38:44;98082.03;;;25.52;77.14
55217;BME280;41086;46.736;15.666;2023-07-29T02:41:11;98085.56;;;25.52;77.26
55217;BME280;41086;46.736;15.666;2023-07-29T02:43:43;98088.94;;;25.28;77.03
55217;BME280;41086;46.736;15.666;2023-07-29T02:46:10;98075.09;;;24.76;80.85
55217;BME280;41086;46.736;15.666;2023-07-29T02:48:37;98067.09;;;24.48;82.81
55217;BME280;41086;46.736;15.666;2023-07-29T02:51:03;98094.84;;;24.57;84.67
55217;BME280;41086;46.736;15.666;2023-07-29T02:53:30;98098.44;;;24.77;83.59
55217;BME280;41086;46.736;15.666;2023-07-29T02:55:57;98105.72;;;24.83;83.65
55217;BME280;41086;46.736;15.666;2023-07-29T02:58:24;98102.44;;;25.14;82.26
55217;BME280;41086;46.736;15.666;2023-07-29T03:00:52;98102.84;;;25.05;79.93
55217;BME280;41086;46.736;15.666;2023-07-29T03:03:20;98100.59;;;25.15;79.91
55217;BME280;41086;46.736;15.666;2023-07-29T03:05:46;98112.66;;;25.12;80.60
55217;BME280;41086;46.736;15.666;2023-07-29T03:08:13;98110.63;;;25.28;79.46
55217;BME280;41086;46.736;15.666;2023-07-29T03:10:40;98083.03;;;25.04;79.13
55217;BME280;41086;46.736;15.666;2023-07-29T03:13:08;98118.88;;;24.93;79.17
55217;BME280;41086;46.736;15.666;2023-07-29T03:15:35;98113.25;;;24.88;81.46
55217;BME280;41086;46.736;15.666;2023-07-29T03:18:02;98071.53;;;24.89;79.59
55217;BME280;41086;46.736;15.666;2023-07-29T03:20:29;98121.69;;;25.33;79.21
55217;BME280;41086;46.736;15.666;2023-07-29T03:22:55;98116.03;;;25.41;77.13
55217;BME280;41086;46.736;15.666;2023-07-29T03:25:22;98116.66;;;25.50;75.40
55217;BME280;41086;46.736;15.666;2023-07-29T03:27:49;98113.09;;;25.42;76.03
55217;BME280;41086;46.736;15.666;2023-07-29T03:30:20;98107.69;;;25.42;75.78
55217;BME280;41086;46.736;15.666;2023-07-29T03:32:49;98114.97;;;25.49;75.04
55217;BME280;41086;46.736;15.666;2023-07-29T03:35:16;98109.38;;;25.43;74.56
55217;BME280;41086;46.736;15.666;2023-07-29T03:37:44;98076.19;;;25.28;75.16
55217;BME280;41086;46.736;15.666;2023-07-29T03:40:11;98104.38;;;25.27;77.52
55217;BME280;41086;46.736;15.666;2023-07-29T03:42:38;98108.53;;;25.23;80.07
55217;BME280;41086;46.736;15.666;2023-07-29T03:45:06;98107.28;;;25.39;78.67
55217;BME280;41086;46.736;15.666;2023-07-29T03:47:33;98109.75;;;25.54;77.37
55217;BME280;41086;46.736;15.666;2023-07-29T03:49:59;98121.88;;;25.51;77.67
55217;BME280;41086;46.736;15.666;2023-07-29T03:52:26;98116.25;;;25.53;76.38
55217;BME280;41086;46.736;15.666;2023-07-29T03:54:53;98118.75;;;25.21;79.75
55217;BME280;41086;46.736;15.666;2023-07-29T03:57:20;98112.69;;;25.39;79.30
55217;BME280;41086;46.736;15.666;2023-07-29T03:59:47;98102.69;;;25.53;77.72
55217;BME280;41086;46.736;15.666;2023-07-29T04:02:14;98109.34;;;25.63;77.15
55217;BME280;41086;46.736;15.666;2023-07-29T04:04:42;98115.59;;;25.37;77.75
55217;BME280;41086;46.736;15.666;2023-07-29T04:07:11;98123.25;;;24.94;82.39
55217;BME280;41086;46.736;15.666;2023-07-29T04:09:39;98104.97;;;25.23;82.08
55217;BME280;41086;46.736;15.666;2023-07-29T04:12:06;98123.75;;;25.17;82.00
55217;BME280;41086;46.736;15.666;2023-07-29T04:14:33;98120.63;;;25.27;80.38
55217;BME280;41086;46.736;15.666;2023-07-29T04:17:00;98121.25;;;25.49;79.79
55217;BME280;41086;46.736;15.666;2023-07-29T04:19:27;98129.16;;;25.37;79.20
55217;BME280;41086;46.736;15.666;2023-07-29T04:21:53;98128.47;;;24.89;82.37
55217;BME280;41086;46.736;15.666;2023-07-29T04:24:20;98134.34;;;24.38;87.55
55217;BME280;41086;46.736;15.666;2023-07-29T04:26:49;98140.38;;;24.40;88.75
55217;BME280;41086;46.736;15.666;2023-07-29T04:29:16;98135.34;;;24.30;89.22
55217;BME280;41086;46.736;15.666;2023-07-29T04:31:44;98135.81;;;24.40;90.05
55217;BME280;41086;46.736;15.666;2023-07-29T04:34:13;98135.56;;;24.35;90.54
55217;BME280;41086;46.736;15.666;2023-07-29T04:36:40;98145.34;;;24.29;91.96
55217;BME280;41086;46.736;15.666;2023-07-29T04:39:06;98151.47;;;24.45;91.89
55217;BME280;41086;46.736;15.666;2023-07-29T04:41:34;98154.75;;;24.95;90.32
55217;BME280;41086;46.736;15.666;2023-07-29T04:44:01;98161.28;;;25.20;88.85
55217;BME280;41086;46.736;15.666;2023-07-29T04:46:28;98169.44;;;25.54;85.52
55217;BME280;41086;46.736;15.666;2023-07-29T04:48:55;98169.16;;;25.02;88.41
55217;BME280;41086;46.736;15.666;2023-07-29T04:51:23;98165.47;;;25.16;88.45
55217;BME280;41086;46.736;15.666;2023-07-29T04:53:50;98168.00;;;25.45;85.95
55217;BME280;41086;46.736;15.666;2023-07-29T04:56:17;98166.94;;;25.59;85.74
55217;BME280;41086;46.736;15.666;2023-07-29T04:58:44;98159.84;;;25.71;85.37
55217;BME280;41086;46.736;15.666;2023-07-29T05:01:11;98155.69;;;25.89;85.13
55217;BME280;41086;46.736;15.666;2023-07-29T05:03:38;98163.81;;;26.08;83.35
55217;BME280;41086;46.736;15.666;2023-07-29T05:06:07;98156.47;;;26.02;82.33
55217;BME280;41086;46.736;15.666;2023-07-29T05:08:33;98156.09;;;25.92;82.94
55217;BME280;41086;46.736;15.666;2023-07-29T05:11:00;98156.09;;;25.79;84.64
55217;BME280;41086;46.736;15.666;2023-07-29T05:13:27;98166.50;;;25.75;84.05
55217;BME280;41086;46.736;15.666;2023-07-29T05:15:55;98173.84;;;25.88;84.29
55217;BME280;41086;46.736;15.666;2023-07-29T05:18:22;98176.28;;;26.16;83.68
55217;BME280;41086;46.736;15.666;2023-07-29T05:20:50;98171.31;;;26.06;84.22
55217;BME280;41086;46.736;15.666;2023-07-29T05:23:17;98179.25;;;26.01;85.70
55217;BME280;41086;46.736;15.666;2023-07-29T05:25:43;98170.44;;;26.26;84.86
55217;BME280;41086;46.736;15.666;2023-07-29T05:28:10;98174.50;;;26.68;84.16
55217;BME280;41086;46.736;15.666;2023-07-29T05:30:37;98164.34;;;26.89;81.72
55217;BME280;41086;46.736;15.666;2023-07-29T05:33:06;98176.53;;;27.11;80.63
55217;BME280;41086;46.736;15.666;2023-07-29T05:35:37;98176.47;;;27.31;80.08
55217;BME280;41086;46.736;15.666;2023-07-29T05:38:05;98172.75;;;27.51;77.99
55217;BME280;41086;46.736;15.666;2023-07-29T05:40:35;98179.97;;;27.63;76.19
55217;BME280;41086;46.736;15.666;2023-07-29T05:43:01;98178.91;;;27.65;74.69
55217;BME280;41086;46.736;15.666;2023-07-29T05:45:29;98187.81;;;27.78;74.75
55217;BME280;41086;46.736;15.666;2023-07-29T05:47:57;98183.09;;;27.92;75.17
55217;BME280;41086;46.736;15.666;2023-07-29T05:50:24;98182.28;;;27.92;72.32
55217;BME280;41086;46.736;15.666;2023-07-29T05:52:51;98179.53;;;27.92;73.17
55217;BME280;41086;46.736;15.666;2023-07-29T05:55:18;98187.13;;;28.08;72.74
55217;BME280;41086;46.736;15.666;2023-07-29T05:57:45;98187.81;;;28.03;73.06
55217;BME280;41086;46.736;15.666;2023-07-29T06:00:12;98183.25;;;27.97;72.92
55217;BME280;41086;46.736;15.666;2023-07-29T06:02:39;98187.44;;;28.00;72.60
55217;BME280;41086;46.736;15.666;2023-07-29T06:05:10;98189.94;;;28.01;72.97
55217;BME280;41086;46.736;15.666;2023-07-29T06:07:37;98191.31;;;28.11;72.66
55217;BME280;41086;46.736;15.666;2023-07-29T06:10:04;98179.25;;;28.00;72.76
55217;BME280;41086;46.736;15.666;2023-07-29T06:12:32;98195.50;;;28.06;72.76
55217;BME280;41086;46.736;15.666;2023-07-29T06:14:58;98197.13;;;28.14;71.45
55217;BME280;41086;46.736;15.666;2023-07-29T06:17:25;98205.13;;;27.91;73.35
55217;BME280;41086;46.736;15.666;2023-07-29T06:19:52;98206.50;;;28.00;72.92
55217;BME280;41086;46.736;15.666;2023-07-29T06:22:19;98204.84;;;27.99;72.78
55217;BME280;41086;46.736;15.666;2023-07-29T06:24:46;98175.09;;;27.97;72.56
55217;BME280;41086;46.736;15.666;2023-07-29T06:27:13;98202.41;;;28.09;72.64
55217;BME280;41086;46.736;15.666;2023-07-29T06:29:40;98177.47;;;28.12;71.89
55217;BME280;41086;46.736;15.666;2023-07-29T06:32:07;98198.22;;;28.32;69.56
55217;BME280;41086;46.736;15.666;2023-07-29T06:34:33;98192.59;;;28.26;70.59
55217;BME280;41086;46.736;15.666;2023-07-29T06:37:00;98190.78;;;28.39;68.94
55217;BME280;41086;46.736;15.666;2023-07-29T06:39:28;98185.94;;;28.41;69.92
55217;BME280;41086;46.736;15.666;2023-07-29T06:41:55;98189.31;;;28.61;69.46
55217;BME280;41086;46.736;15.666;2023-07-29T06:44:21;98189.22;;;28.68;69.63
55217;BME280;41086;46.736;15.666;2023-07-29T06:46:48;98189.88;;;28.63;68.06
55217;BME280;41086;46.736;15.666;2023-07-29T06:49:15;98192.81;;;28.50;67.35
55217;BME280;41086;46.736;15.666;2023-07-29T06:51:42;98196.47;;;28.37;68.76
55217;BME280;41086;46.736;15.666;2023-07-29T06:54:08;98204.53;;;28.07;70.06
55217;BME280;41086;46.736;15.666;2023-07-29T06:56:35;98208.19;;;28.38;70.10
55217;BME280;41086;46.736;15.666;2023-07-29T06:59:02;98207.84;;;28.09;71.50
55217;BME280;41086;46.736;15.666;2023-07-29T07:01:29;98208.38;;;27.99;71.33
55217;BME280;41086;46.736;15.666;2023-07-29T07:03:56;98208.59;;;28.23;70.20
55217;BME280;41086;46.736;15.666;2023-07-29T07:06:25;98199.91;;;28.51;68.55
55217;BME280;41086;46.736;15.666;2023-07-29T07:08:52;98201.88;;;28.44;67.56
55217;BME280;41086;46.736;15.666;2023-07-29T07:11:19;98186.34;;;28.63;69.15
55217;BME280;41086;46.736;15.666;2023-07-29T07:13:45;98198.72;;;28.95;68.06
55217;BME280;41086;46.736;15.666;2023-07-29T07:16:12;98196.53;;;29.04;67.18
55217;BME280;41086;46.736;15.666;2023-07-29T07:18:39;98209.78;;;29.01;67.12
55217;BME280;41086;46.736;15.666;2023-07-29T07:21:06;98207.16;;;28.76;66.69
55217;BME280;41086;46.736;15.666;2023-07-29T07:23:32;98193.13;;;28.90;67.55
55217;BME280;41086;46.736;15.666;2023-07-29T07:25:59;98185.41;;;28.69;65.26
55217;BME280;41086;46.736;15.666;2023-07-29T07:28:26;98186.22;;;28.88;64.05
55217;BME280;41086;46.736;15.666;2023-07-29T07:30:53;98183.69;;;28.75;63.41
55217;BME280;41086;46.736;15.666;2023-07-29T07:33:22;98178.78;;;28.95;64.45
55217;BME280;41086;46.736;15.666;2023-07-29T07:35:49;98181.44;;;29.02;63.73
55217;BME280;41086;46.736;15.666;2023-07-29T07:38:15;98179.22;;;29.41;62.52
55217;BME280;41086;46.736;15.666;2023-07-29T07:40:51;98165.84;;;29.51;63.02
55217;BME280;41086;46.736;15.666;2023-07-29T07:43:18;98172.16;;;29.75;60.53
55217;BME280;41086;46.736;15.666;2023-07-29T07:45:47;98183.72;;;29.89;59.87
55217;BME280;41086;46.736;15.666;2023-07-29T07:48:14;98181.97;;;29.52;59.03
55217;BME280;41086;46.736;15.666;2023-07-29T07:50:43;98187.13;;;29.96;58.84
55217;BME280;41086;46.736;15.666;2023-07-29T07:53:10;98170.50;;;29.74;58.88
55217;BME280;41086;46.736;15.666;2023-07-29T07:55:37;98198.06;;;30.31;57.93
55217;BME280;41086;46.736;15.666;2023-07-29T07:58:04;98188.88;;;30.61;55.60
55217;BME280;41086;46.736;15.666;2023-07-29T08:00:31;98184.41;;;30.31;55.86
55217;BME280;41086;46.736;15.666;2023-07-29T08:02:57;98179.53;;;30.21;58.12
55217;BME280;41086;46.736;15.666;2023-07-29T08:05:24;98180.47;;;30.91;55.16
55217;BME280;41086;46.736;15.666;2023-07-29T08:07:51;98185.97;;;31.65;54.46
55217;BME280;41086;46.736;15.666;2023-07-29T08:10:18;98180.72;;;32.14;50.44
55217;BME280;41086;46.736;15.666;2023-07-29T08:12:45;98189.16;;;32.30;47.69
55217;BME280;41086;46.736;15.666;2023-07-29T08:15:11;98169.84;;;32.41;46.38
55217;BME280;41086;46.736;15.666;2023-07-29T08:17:38;98185.88;;;32.33;47.67
55217;BME280;41086;46.736;15.666;2023-07-29T08:20:05;98156.72;;;32.05;48.32
55217;BME280;41086;46.736;15.666;2023-07-29T08:22:33;98181.97;;;32.07;48.76
55217;BME280;41086;46.736;15.666;2023-07-29T08:24:59;98185.97;;;31.99;47.33
55217;BME280;41086;46.736;15.666;2023-07-29T08:27:33;98185.22;;;32.04;48.45
55217;BME280;41086;46.736;15.666;2023-07-29T08:30:04;98185.44;;;32.19;48.55
55217;BME280;41086;46.736;15.666;2023-07-29T08:32:33;98183.53;;;32.19;48.79
55217;BME280;41086;46.736;15.666;2023-07-29T08:35:00;98180.91;;;32.30;47.38
55217;BME280;41086;46.736;15.666;2023-07-29T08:37:27;98181.31;;;32.55;47.78
55217;BME280;41086;46.736;15.666;2023-07-29T08:39:54;98187.81;;;32.93;47.81
55217;BME280;41086;46.736;15.666;2023-07-29T08:42:23;98175.59;;;33.06;47.76
55217;BME280;41086;46.736;15.666;2023-07-29T08:44:54;98193.34;;;33.20;47.81
55217;BME280;41086;46.736;15.666;2023-07-29T08:47:21;98174.16;;;33.25;46.88
55217;BME280;41086;46.736;15.666;2023-07-29T08:49:50;98189.31;;;33.60;46.96
55217;BME280;41086;46.736;15.666;2023-07-29T08:52:19;98179.66;;;33.90;46.82
55217;BME280;41086;46.736;15.666;2023-07-29T08:54:47;98181.41;;;34.43;46.25
55217;BME280;41086;46.736;15.666;2023-07-29T08:57:14;98185.13;;;34.64;44.08
55217;BME280;41086;46.736;15.666;2023-07-29T08:59:41;98182.97;;;34.72;43.70
55217;BME280;41086;46.736;15.666;2023-07-29T09:02:08;98177.81;;;35.01;43.44
55217;BME280;41086;46.736;15.666;2023-07-29T09:04:35;98189.44;;;35.08;43.19
55217;BME280;41086;46.736;15.666;2023-07-29T09:07:02;98183.41;;;35.21;42.25
55217;BME280;41086;46.736;15.666;2023-07-29T09:09:29;98178.97;;;35.10;41.56
55217;BME280;41086;46.736;15.666;2023-07-29T09:11:57;98177.38;;;35.55;41.06
55217;BME280;41086;46.736;15.666;2023-07-29T09:14:24;98179.59;;;35.68;39.57
55217;BME280;41086;46.736;15.666;2023-07-29T09:16:51;98176.56;;;36.11;39.14
55217;BME280;41086;46.736;15.666;2023-07-29T09:19:18;98173.97;;;36.45;39.56
55217;BME280;41086;46.736;15.666;2023-07-29T09:21:46;98169.91;;;36.22;38.40
55217;BME280;41086;46.736;15.666;2023-07-29T09:24:16;98182.53;;;36.44;38.14
55217;BME280;41086;46.736;15.666;2023-07-29T09:26:51;98167.63;;;36.45;37.78
55217;BME280;41086;46.736;15.666;2023-07-29T09:29:23;98168.28;;;36.01;38.04
55217;BME280;41086;46.736;15.666;2023-07-29T09:31:52;98168.28;;;36.16;39.19
55217;BME280;41086;46.736;15.666;2023-07-29T09:34:19;98167.72;;;36.19;37.96
55217;BME280;41086;46.736;15.666;2023-07-29T09:36:50;98167.41;;;36.26;40.04
55217;BME280;41086;46.736;15.666;2023-07-29T09:39:17;98166.00;;;36.54;39.39
55217;BME280;41086;46.736;15.666;2023-07-29T09:41:47;98162.25;;;36.84;38.75
55217;BME280;41086;46.736;15.666;2023-07-29T09:44:15;98162.25;;;36.89;36.92
55217;BME280;41086;46.736;15.666;2023-07-29T09:46:45;98158.31;;;37.00;36.31
55217;BME280;41086;46.736;15.666;2023-07-29T09:49:12;98162.34;;;37.18;37.54
55217;BME280;41086;46.736;15.666;2023-07-29T09:51:39;98151.34;;;37.53;37.37
55217;BME280;41086;46.736;15.666;2023-07-29T09:54:07;98150.69;;;37.95;37.72
55217;BME280;41086;46.736;15.666;2023-07-29T09:56:39;98158.72;;;37.97;36.71
55217;BME280;41086;46.736;15.666;2023-07-29T09:59:08;98153.84;;;37.54;37.04
55217;BME280;41086;46.736;15.666;2023-07-29T10:01:34;98161.22;;;37.64;37.28
55217;BME280;41086;46.736;15.666;2023-07-29T10:04:04;98155.69;;;37.93;36.97
55217;BME280;41086;46.736;15.666;2023-07-29T10:06:34;98154.78;;;38.03;37.35
55217;BME280;41086;46.736;15.666;2023-07-29T10:09:02;98148.25;;;37.59;37.10
55217;BME280;41086;46.736;15.666;2023-07-29T10:11:30;98149.56;;;38.01;35.94
55217;BME280;41086;46.736;15.666;2023-07-29T10:13:58;98150.28;;;38.12;34.96
55217;BME280;41086;46.736;15.666;2023-07-29T10:16:36;98149.34;;;37.92;33.51
55217;BME280;41086;46.736;15.666;2023-07-29T10:19:04;98143.38;;;37.80;33.47
55217;BME280;41086;46.736;15.666;2023-07-29T10:21:36;98146.38;;;38.13;33.61
55217;BME280;41086;46.736;15.666;2023-07-29T10:24:06;98144.84;;;38.55;33.52
55217;BME280;41086;46.736;15.666;2023-07-29T10:26:39;98135.22;;;38.71;32.68
55217;BME280;41086;46.736;15.666;2023-07-29T10:29:12;98130.53;;;38.48;31.92
55217;BME280;41086;46.736;15.666;2023-07-29T10:31:43;98130.94;;;38.60;32.56
55217;BME280;41086;46.736;15.666;2023-07-29T10:34:11;98129.19;;;38.64;32.32
55217;BME280;41086;46.736;15.666;2023-07-29T10:36:39;98127.78;;;38.67;32.82
55217;BME280;41086;46.736;15.666;2023-07-29T10:39:07;98138.22;;;38.51;33.07
55217;BME280;41086;46.736;15.666;2023-07-29T10:47:20;98141.63;;;38.67;33.26
55217;BME280;41086;46.736;15.666;2023-07-29T10:49:50;98134.63;;;38.50;32.46
55217;BME280;41086;46.736;15.666;2023-07-29T10:57:52;98128.50;;;38.96;33.58
55217;BME280;41086;46.736;15.666;2023-07-29T11:00:21;98130.00;;;39.45;32.34
55217;BME280;41086;46.736;15.666;2023-07-29T11:03:02;98130.81;;;39.46;32.00
55217;BME280;41086;46.736;15.666;2023-07-29T11:05:47;98126.25;;;39.55;32.40
55217;BME280;41086;46.736;15.666;2023-07-29T11:08:28;98129.41;;;39.81;31.98
55217;BME280;41086;46.736;15.666;2023-07-29T11:11:02;98117.22;;;39.96;31.79
55217;BME280;41086;46.736;15.666;2023-07-29T11:13:32;98128.16;;;39.87;32.97
55217;BME280;41086;46.736;15.666;2023-07-29T11:16:00;98115.78;;;40.13;30.91
55217;BME280;41086;46.736;15.666;2023-07-29T11:18:30;98104.47;;;40.23;31.93
55217;BME280;41086;46.736;15.666;2023-07-29T11:20:57;98107.22;;;39.95;31.85
55217;BME280;41086;46.736;15.666;2023-07-29T11:23:33;98102.38;;;39.87;31.61
55217;BME280;41086;46.736;15.666;2023-07-29T11:26:01;98104.16;;;39.97;32.52
55217;BME280;41086;46.736;15.666;2023-07-29T11:28:28;98096.56;;;40.02;30.20
55217;BME280;41086;46.736;15.666;2023-07-29T11:30:56;98086.38;;;40.11;30.85
55217;BME280;41086;46.736;15.666;2023-07-29T11:33:25;98089.06;;;40.30;30.20
55217;BME280;41086;46.736;15.666;2023-07-29T11:35:55;98090.38;;;40.05;29.96
55217;BME280;41086;46.736;15.666;2023-07-29T11:38:22;98085.56;;;40.39;29.93
55217;BME280;41086;46.736;15.666;2023-07-29T11:40:57;98077.31;;;40.61;30.25
55217;BME280;41086;46.736;15.666;2023-07-29T11:43:24;98075.94;;;40.86;30.19
55217;BME280;41086;46.736;15.666;2023-07-29T11:45:51;98072.84;;;40.38;29.18
55217;BME280;41086;46.736;15.666;2023-07-29T11:48:32;98065.50;;;40.42;29.16
55217;BME280;41086;46.736;15.666;2023-07-29T11:51:00;98060.38;;;40.35;29.80
55217;BME280;41086;46.736;15.666;2023-07-29T11:53:30;98051.63;;;39.86;30.92
55217;BME280;41086;46.736;15.666;2023-07-29T11:55:58;98063.78;;;40.32;31.23
55217;BME280;41086;46.736;15.666;2023-07-29T11:58:26;98054.84;;;40.07;29.93
55217;BME280;41086;46.736;15.666;2023-07-29T12:00:53;98056.25;;;40.46;29.49
55217;BME280;41086;46.736;15.666;2023-07-29T12:03:20;98059.66;;;40.02;29.12
55217;BME280;41086;46.736;15.666;2023-07-29T12:05:48;98045.91;;;39.36;27.97
55217;BME280;41086;46.736;15.666;2023-07-29T12:08:15;98045.81;;;39.41;28.68
55217;BME280;41086;46.736;15.666;2023-07-29T12:10:42;98027.44;;;39.59;29.59
55217;BME280;41086;46.736;15.666;2023-07-29T12:13:10;98035.88;;;39.68;29.16
55217;BME280;41086;46.736;15.666;2023-07-29T12:15:38;98027.34;;;39.51;29.56
55217;BME280;41086;46.736;15.666;2023-07-29T12:18:06;98038.19;;;39.94;30.10
55217;BME280;41086;46.736;15.666;2023-07-29T12:20:33;98026.88;;;39.90;30.22
55217;BME280;41086;46.736;15.666;2023-07-29T12:23:01;98025.66;;;40.24;28.73
55217;BME280;41086;46.736;15.666;2023-07-29T12:25:29;98021.09;;;40.42;27.99
55217;BME280;41086;46.736;15.666;2023-07-29T12:27:56;98017.03;;;40.75;28.41
55217;BME280;41086;46.736;15.666;2023-07-29T12:30:28;98013.75;;;40.96;28.81
55217;BME280;41086;46.736;15.666;2023-07-29T12:32:54;98019.41;;;40.68;27.50
55217;BME280;41086;46.736;15.666;2023-07-29T12:35:21;98012.28;;;40.40;27.33
55217;BME280;41086;46.736;15.666;2023-07-29T12:37:58;98020.22;;;39.91;27.73
55217;BME280;41086;46.736;15.666;2023-07-29T12:40:26;98011.19;;;39.85;29.53
55217;BME280;41086;46.736;15.666;2023-07-29T12:42:53;98013.31;;;40.30;29.20
55217;BME280;41086;46.736;15.666;2023-07-29T12:45:20;98016.63;;;40.68;29.57
55217;BME280;41086;46.736;15.666;2023-07-29T12:47:50;98005.09;;;40.97;28.62
55217;BME280;41086;46.736;15.666;2023-07-29T12:50:17;98007.81;;;40.89;28.55
55217;BME280;41086;46.736;15.666;2023-07-29T12:52:44;98006.25;;;40.96;28.63
55217;BME280;41086;46.736;15.666;2023-07-29T12:55:11;98003.47;;;40.60;28.52
55217;BME280;41086;46.736;15.666;2023-07-29T12:57:41;97992.03;;;40.11;29.31
55217;BME280;41086;46.736;15.666;2023-07-29T13:00:09;97986.59;;;40.34;29.33
55217;BME280;41086;46.736;15.666;2023-07-29T13:02:36;97990.47;;;40.83;30.03
55217;BME280;41086;46.736;15.666;2023-07-29T13:05:03;97993.38;;;40.78;28.45
55217;BME280;41086;46.736;15.666;2023-07-29T13:07:30;97989.50;;;40.88;28.70